EZY21VB EGPH-EGGD
Flight info
| Callsign | EZY21VB |
|---|---|
| Flight time | 0h 53m |
| Altitude | 33000 |
| Route | GOSAM P600 FENIK L612 NAVSO DCT ADZOP DCT EGTOC DCT NOKIN N862 KARNO/N0418F320 DCT ALHUP DCT LUCSA/N0369F230 N862 WEVBE |
| Aircraft | A320/M-SDE3FGHIRWY/LB1 |
Departure
| Time | 2026-05-04 09:20 |
|---|---|
| Airport | Edinburgh Airport (EGPH) |
Arrival
| Time | 2026-05-04 10:13 |
|---|---|
| Airport | Bristol Airport (EGGD) |
| Time | Latitude | Longitude | Altitude | Speed | Heading |
|---|---|---|---|---|---|
| 2026-05-04 08:48 | 55.94953 | -3.36030 | 105 ft | 0 kts | 254° |
| 2026-05-04 08:54 | 55.94953 | -3.36029 | 107 ft | 0 kts | 254° |
| 2026-05-04 09:10 | 55.94953 | -3.36028 | 107 ft | 0 kts | 254° |
| 2026-05-04 09:14 | 55.94965 | -3.35888 | 107 ft | 4 kts | 288° |
| 2026-05-04 09:14 | 55.94954 | -3.35859 | 104 ft | 1 kts | 347° |
| 2026-05-04 09:14 | 55.94953 | -3.35859 | 104 ft | 0 kts | 347° |
| 2026-05-04 09:17 | 55.95267 | -3.35889 | 102 ft | 20 kts | 60° |
| 2026-05-04 09:18 | 55.95333 | -3.35693 | 102 ft | 18 kts | 57° |
| 2026-05-04 09:18 | 55.95391 | -3.35523 | 104 ft | 14 kts | 58° |
| 2026-05-04 09:18 | 55.95455 | -3.35402 | 104 ft | 14 kts | 7° |
| 2026-05-04 09:18 | 55.95548 | -3.35494 | 101 ft | 17 kts | 322° |
| 2026-05-04 09:19 | 55.95553 | -3.35620 | 101 ft | 17 kts | 242° |
| 2026-05-04 09:19 | 55.95478 | -3.35838 | 101 ft | 38 kts | 239° |
| 2026-05-04 09:19 | 55.95202 | -3.36648 | 108 ft | 109 kts | 239° |
| 2026-05-04 09:19 | 55.94732 | -3.38098 | 233 ft | 151 kts | 240° |
| 2026-05-04 09:20 | 55.94169 | -3.39661 | 1025 ft | 149 kts | 237° |
| 2026-05-04 09:20 | 55.93415 | -3.41744 | 1954 ft | 160 kts | 239° |
| 2026-05-04 09:20 | 55.93000 | -3.42931 | 2259 ft | 173 kts | 239° |
| 2026-05-04 09:20 | 55.92333 | -3.44863 | 2683 ft | 195 kts | 240° |
| 2026-05-04 09:21 | 55.91585 | -3.47067 | 3180 ft | 220 kts | 241° |
| 2026-05-04 09:21 | 55.90758 | -3.49537 | 3723 ft | 242 kts | 245° |
| 2026-05-04 09:21 | 55.90272 | -3.52438 | 4608 ft | 249 kts | 261° |
| 2026-05-04 09:21 | 55.89967 | -3.55500 | 5546 ft | 255 kts | 261° |
| 2026-05-04 09:22 | 55.89440 | -3.58535 | 6432 ft | 261 kts | 243° |
| 2026-05-04 09:22 | 55.88235 | -3.60988 | 7365 ft | 271 kts | 220° |
| 2026-05-04 09:22 | 55.86704 | -3.62916 | 8329 ft | 274 kts | 217° |
| 2026-05-04 09:22 | 55.85100 | -3.64871 | 9297 ft | 279 kts | 217° |
| 2026-05-04 09:23 | 55.83502 | -3.66800 | 10187 ft | 284 kts | 217° |
| 2026-05-04 09:23 | 55.81803 | -3.68853 | 10601 ft | 307 kts | 217° |
| 2026-05-04 09:23 | 55.79977 | -3.71065 | 11080 ft | 324 kts | 217° |
| 2026-05-04 09:23 | 55.78093 | -3.73347 | 11846 ft | 331 kts | 217° |
| 2026-05-04 09:25 | 55.64124 | -3.90195 | 17045 ft | 361 kts | 217° |
| 2026-05-04 09:25 | 55.62030 | -3.92716 | 17723 ft | 366 kts | 217° |
| 2026-05-04 09:26 | 55.59910 | -3.95264 | 18384 ft | 370 kts | 216° |
| 2026-05-04 09:26 | 55.57767 | -3.97836 | 18949 ft | 375 kts | 216° |
| 2026-05-04 09:26 | 55.55594 | -4.00439 | 19520 ft | 379 kts | 216° |
| 2026-05-04 09:26 | 55.53266 | -4.02711 | 20077 ft | 387 kts | 204° |
| 2026-05-04 09:27 | 55.50656 | -4.03993 | 20633 ft | 394 kts | 190° |
| 2026-05-04 09:27 | 55.47895 | -4.04147 | 21186 ft | 401 kts | 175° |
| 2026-05-04 09:27 | 55.45158 | -4.03110 | 21715 ft | 405 kts | 160° |
| 2026-05-04 09:27 | 55.42616 | -4.00968 | 22273 ft | 408 kts | 150° |
| 2026-05-04 09:28 | 55.40125 | -3.98522 | 22833 ft | 411 kts | 150° |
| 2026-05-04 09:28 | 55.37646 | -3.96108 | 23366 ft | 415 kts | 150° |
| 2026-05-04 09:28 | 55.35072 | -3.93624 | 23851 ft | 418 kts | 150° |
| 2026-05-04 09:28 | 55.32543 | -3.91191 | 24278 ft | 422 kts | 150° |
| 2026-05-04 09:29 | 55.29958 | -3.88706 | 24716 ft | 425 kts | 150° |
| 2026-05-04 09:29 | 55.27354 | -3.86208 | 25137 ft | 429 kts | 150° |
| 2026-05-04 09:29 | 55.24729 | -3.83694 | 25587 ft | 432 kts | 150° |
| 2026-05-04 09:29 | 55.22032 | -3.81334 | 25980 ft | 436 kts | 156° |
| 2026-05-04 09:30 | 55.19152 | -3.79604 | 26400 ft | 439 kts | 161° |
| 2026-05-04 09:30 | 55.16230 | -3.78010 | 26836 ft | 441 kts | 161° |
| 2026-05-04 09:30 | 55.13291 | -3.76410 | 27247 ft | 444 kts | 161° |
| 2026-05-04 09:30 | 55.10326 | -3.74792 | 27648 ft | 447 kts | 161° |
| 2026-05-04 09:31 | 55.07353 | -3.73165 | 28042 ft | 450 kts | 161° |
| 2026-05-04 09:31 | 55.04346 | -3.71524 | 28437 ft | 453 kts | 161° |
| 2026-05-04 09:31 | 55.01320 | -3.69875 | 28825 ft | 456 kts | 161° |
| 2026-05-04 09:31 | 54.98285 | -3.68223 | 29215 ft | 459 kts | 161° |
| 2026-05-04 09:32 | 54.95221 | -3.66557 | 29597 ft | 462 kts | 161° |
| 2026-05-04 09:32 | 54.92147 | -3.64890 | 30000 ft | 464 kts | 160° |
| 2026-05-04 09:34 | 54.70267 | -3.53094 | 32050 ft | 472 kts | 160° |
| 2026-05-04 09:34 | 54.67186 | -3.51447 | 32081 ft | 455 kts | 160° |
| 2026-05-04 09:34 | 54.61255 | -3.48287 | 32079 ft | 441 kts | 160° |
| 2026-05-04 09:35 | 54.55399 | -3.45166 | 32079 ft | 440 kts | 160° |
| 2026-05-04 09:35 | 54.49554 | -3.42052 | 32078 ft | 439 kts | 160° |
| 2026-05-04 09:37 | 54.26323 | -3.29790 | 32065 ft | 437 kts | 159° |
| 2026-05-04 09:38 | 54.20509 | -3.26765 | 32070 ft | 436 kts | 159° |
| 2026-05-04 09:38 | 54.14492 | -3.24980 | 32100 ft | 442 kts | 171° |
| 2026-05-04 09:39 | 54.08366 | -3.24025 | 32094 ft | 441 kts | 171° |
| 2026-05-04 09:39 | 54.02262 | -3.23063 | 32091 ft | 440 kts | 171° |
| 2026-05-04 09:40 | 53.96266 | -3.21295 | 32094 ft | 436 kts | 163° |
| 2026-05-04 09:40 | 53.90353 | -3.19039 | 32097 ft | 435 kts | 162° |
| 2026-05-04 09:42 | 53.66776 | -3.10135 | 32104 ft | 432 kts | 163° |
| 2026-05-04 09:43 | 53.60951 | -3.07961 | 32095 ft | 431 kts | 163° |
| 2026-05-04 09:43 | 53.55104 | -3.05777 | 32087 ft | 430 kts | 163° |
| 2026-05-04 09:44 | 53.49254 | -3.03598 | 32080 ft | 430 kts | 163° |
| 2026-05-04 09:46 | 53.25927 | -2.94976 | 32067 ft | 429 kts | 163° |
| 2026-05-04 09:46 | 53.20141 | -2.92847 | 32079 ft | 428 kts | 163° |
| 2026-05-04 09:47 | 53.14321 | -2.90707 | 32080 ft | 428 kts | 163° |
| 2026-05-04 09:49 | 52.93399 | -2.89510 | 30945 ft | 431 kts | 179° |
| 2026-05-04 09:49 | 52.90413 | -2.89768 | 30636 ft | 427 kts | 179° |
| 2026-05-04 09:49 | 52.87461 | -2.90301 | 30099 ft | 427 kts | 184° |
| 2026-05-04 09:51 | 52.70359 | -2.94214 | 27012 ft | 398 kts | 181° |
| 2026-05-04 09:51 | 52.67601 | -2.94440 | 26544 ft | 393 kts | 181° |
| 2026-05-04 09:51 | 52.64881 | -2.94664 | 26084 ft | 388 kts | 181° |
| 2026-05-04 09:51 | 52.62196 | -2.94884 | 25613 ft | 384 kts | 181° |
| 2026-05-04 09:52 | 52.59536 | -2.95099 | 25145 ft | 381 kts | 181° |
| 2026-05-04 09:52 | 52.56905 | -2.95311 | 24675 ft | 377 kts | 181° |
| 2026-05-04 09:52 | 52.54293 | -2.95520 | 24200 ft | 374 kts | 181° |
| 2026-05-04 09:52 | 52.51693 | -2.95730 | 23709 ft | 372 kts | 181° |
| 2026-05-04 09:53 | 52.49141 | -2.95935 | 23160 ft | 370 kts | 182° |
| 2026-05-04 09:53 | 52.46587 | -2.96141 | 22671 ft | 366 kts | 183° |
| 2026-05-04 09:53 | 52.44059 | -2.96350 | 22180 ft | 362 kts | 183° |
| 2026-05-04 09:53 | 52.41557 | -2.96560 | 21692 ft | 359 kts | 183° |
| 2026-05-04 09:54 | 52.39076 | -2.96768 | 21197 ft | 356 kts | 183° |
| 2026-05-04 09:54 | 52.36610 | -2.96973 | 20726 ft | 353 kts | 183° |
| 2026-05-04 09:54 | 52.34161 | -2.97176 | 20256 ft | 351 kts | 182° |
| 2026-05-04 09:54 | 52.31723 | -2.97377 | 19760 ft | 349 kts | 182° |
| 2026-05-04 09:55 | 52.29296 | -2.97574 | 19288 ft | 348 kts | 182° |
| 2026-05-04 09:55 | 52.26878 | -2.97769 | 18817 ft | 347 kts | 183° |
| 2026-05-04 09:55 | 52.24471 | -2.97962 | 18344 ft | 346 kts | 182° |
| 2026-05-04 09:55 | 52.22075 | -2.98154 | 17839 ft | 344 kts | 182° |
| 2026-05-04 09:56 | 52.19693 | -2.98345 | 17377 ft | 341 kts | 182° |
| 2026-05-04 09:56 | 52.17338 | -2.98538 | 16919 ft | 338 kts | 182° |
| 2026-05-04 09:56 | 52.15003 | -2.98729 | 16478 ft | 335 kts | 182° |
| 2026-05-04 09:56 | 52.12712 | -2.98915 | 16110 ft | 331 kts | 182° |
| 2026-05-04 09:57 | 52.10444 | -2.99102 | 16045 ft | 324 kts | 182° |
| 2026-05-04 09:57 | 52.08194 | -2.99287 | 15799 ft | 324 kts | 182° |
| 2026-05-04 09:57 | 52.05958 | -2.99467 | 15660 ft | 322 kts | 182° |
| 2026-05-04 09:57 | 52.03719 | -2.99646 | 15542 ft | 321 kts | 182° |
| 2026-05-04 09:58 | 52.01488 | -2.99825 | 15411 ft | 321 kts | 182° |
| 2026-05-04 09:58 | 51.99268 | -3.00002 | 15300 ft | 318 kts | 182° |
| 2026-05-04 09:58 | 51.97063 | -3.00177 | 15173 ft | 317 kts | 181° |
| 2026-05-04 10:00 | 51.82553 | -2.92812 | 12072 ft | 305 kts | 159° |
| 2026-05-04 10:00 | 51.80570 | -2.91626 | 11601 ft | 303 kts | 159° |
| 2026-05-04 10:02 | 51.67059 | -2.84332 | 8704 ft | 273 kts | 165° |
| 2026-05-04 10:04 | 51.54103 | -2.79352 | 7387 ft | 273 kts | 165° |
| 2026-05-04 10:04 | 51.52849 | -2.78880 | 7103 ft | 274 kts | 165° |
| 2026-05-04 10:04 | 51.50995 | -2.78172 | 6686 ft | 274 kts | 165° |
| 2026-05-04 10:04 | 51.49166 | -2.77489 | 6255 ft | 273 kts | 165° |
| 2026-05-04 10:05 | 51.47317 | -2.76794 | 5787 ft | 271 kts | 165° |
| 2026-05-04 10:05 | 51.45519 | -2.76120 | 5328 ft | 259 kts | 165° |
| 2026-05-04 10:05 | 51.43777 | -2.75729 | 4874 ft | 249 kts | 183° |
| 2026-05-04 10:05 | 51.42171 | -2.76627 | 4402 ft | 246 kts | 214° |
| 2026-05-04 10:06 | 51.41072 | -2.78734 | 3934 ft | 252 kts | 246° |
| 2026-05-04 10:06 | 51.40779 | -2.81470 | 3479 ft | 250 kts | 274° |
| 2026-05-04 10:06 | 51.40999 | -2.84190 | 3008 ft | 243 kts | 280° |
| 2026-05-04 10:08 | 51.41701 | -2.98078 | 2506 ft | 194 kts | 225° |
| 2026-05-04 10:08 | 51.40568 | -2.99135 | 2512 ft | 189 kts | 195° |
| 2026-05-04 10:08 | 51.39311 | -2.99544 | 2494 ft | 185 kts | 173° |
| 2026-05-04 10:08 | 51.38174 | -2.98768 | 2509 ft | 178 kts | 133° |
| 2026-05-04 10:09 | 51.37496 | -2.97143 | 2508 ft | 178 kts | 109° |
| 2026-05-04 10:09 | 51.37326 | -2.95206 | 2507 ft | 178 kts | 86° |
| 2026-05-04 10:09 | 51.37410 | -2.93227 | 2504 ft | 178 kts | 86° |
| 2026-05-04 10:09 | 51.37493 | -2.91248 | 2502 ft | 178 kts | 86° |
| 2026-05-04 10:10 | 51.37574 | -2.89278 | 2490 ft | 176 kts | 86° |
| 2026-05-04 10:10 | 51.37654 | -2.87314 | 2351 ft | 178 kts | 86° |
| 2026-05-04 10:10 | 51.37733 | -2.85354 | 2141 ft | 174 kts | 86° |
| 2026-05-04 10:10 | 51.37807 | -2.83514 | 1922 ft | 156 kts | 85° |
| 2026-05-04 10:11 | 51.37873 | -2.81865 | 1747 ft | 140 kts | 86° |
| 2026-05-04 10:11 | 51.37933 | -2.80369 | 1547 ft | 131 kts | 85° |
| 2026-05-04 10:11 | 51.37990 | -2.78933 | 1365 ft | 129 kts | 86° |
| 2026-05-04 10:11 | 51.38046 | -2.77516 | 1183 ft | 127 kts | 84° |
| 2026-05-04 10:12 | 51.38102 | -2.76097 | 1016 ft | 127 kts | 85° |
| 2026-05-04 10:12 | 51.38156 | -2.74700 | 815 ft | 126 kts | 85° |
| 2026-05-04 10:12 | 51.38214 | -2.73309 | 672 ft | 126 kts | 85° |
| 2026-05-04 10:12 | 51.38265 | -2.72005 | 622 ft | 97 kts | 86° |
| 2026-05-04 10:13 | 51.38294 | -2.71216 | 602 ft | 52 kts | 86° |
| 2026-05-04 10:13 | 51.38309 | -2.70852 | 619 ft | 24 kts | 85° |
| 2026-05-04 10:13 | 51.38392 | -2.70731 | 612 ft | 15 kts | 15° |
| 2026-05-04 10:13 | 51.38422 | -2.70716 | 613 ft | 1 kts | 19° |
| 2026-05-04 10:14 | 51.38438 | -2.70709 | 626 ft | 0 kts | 11° |
| 2026-05-04 10:16 | 51.38529 | -2.70793 | 614 ft | 7 kts | 72° |
| 2026-05-04 10:16 | 51.38529 | -2.70770 | 614 ft | 2 kts | 90° |
| 2026-05-04 10:16 | 51.38529 | -2.70766 | 613 ft | 0 kts | 89° |
| 2026-05-04 10:17 | 51.38529 | -2.70767 | 613 ft | 0 kts | 89° |